createdAt,value
2017-08-31T00:00:03.719Z,0
2017-08-31T00:01:04.702Z,0
2017-08-31T00:02:04.338Z,0
2017-08-31T00:03:04.340Z,0
2017-08-31T00:04:04.677Z,0
2017-08-31T00:05:04.642Z,0
2017-08-31T00:06:04.591Z,0
2017-08-31T00:07:04.616Z,0
2017-08-31T00:08:03.957Z,0
2017-08-31T00:09:03.610Z,0
2017-08-31T00:10:04.562Z,0
2017-08-31T00:11:04.549Z,0
2017-08-31T00:12:04.498Z,0
2017-08-31T00:13:04.470Z,0
2017-08-31T00:14:04.509Z,0
2017-08-31T00:15:03.516Z,0
2017-08-31T00:16:04.125Z,0
2017-08-31T00:17:04.111Z,0
2017-08-31T00:18:04.109Z,0
2017-08-31T00:19:04.406Z,0
2017-08-31T00:20:04.375Z,0
2017-08-31T00:21:04.034Z,0
2017-08-31T00:22:04.130Z,0
2017-08-31T00:23:04.330Z,0
2017-08-31T00:24:04.329Z,0
2017-08-31T00:25:03.998Z,0
2017-08-31T00:26:04.306Z,0
2017-08-31T00:27:04.279Z,0
2017-08-31T00:28:03.948Z,0
2017-08-31T00:29:04.250Z,0
2017-08-31T00:30:04.273Z,0
2017-08-31T00:31:03.915Z,0
2017-08-31T00:32:04.210Z,0
2017-08-31T00:33:03.268Z,0
2017-08-31T00:34:04.180Z,0
2017-08-31T00:35:03.859Z,0
2017-08-31T00:36:03.847Z,0
2017-08-31T00:37:03.203Z,0
2017-08-31T00:38:04.131Z,0
2017-08-31T00:39:03.808Z,0
2017-08-31T00:40:03.487Z,0
2017-08-31T00:41:04.094Z,0
2017-08-31T00:42:03.783Z,0
2017-08-31T00:43:03.762Z,0
2017-08-31T00:44:03.112Z,0
2017-08-31T00:45:03.721Z,0
2017-08-31T00:46:03.712Z,0
2017-08-31T00:47:03.696Z,0
2017-08-31T00:48:03.786Z,0
2017-08-31T00:49:03.974Z,0
2017-08-31T00:50:03.743Z,0
2017-08-31T00:51:03.634Z,0
2017-08-31T00:52:03.305Z,0
2017-08-31T00:53:03.600Z,0
2017-08-31T00:54:03.595Z,0
2017-08-31T00:55:03.904Z,0
2017-08-31T00:56:03.250Z,0
2017-08-31T00:57:03.565Z,0
2017-08-31T00:58:03.846Z,0
2017-08-31T00:59:03.829Z,0
2017-08-31T01:00:03.812Z,0
2017-08-31T01:01:03.495Z,0
2017-08-31T01:02:03.812Z,0
2017-08-31T01:03:03.485Z,0
2017-08-31T01:04:03.813Z,0
2017-08-31T01:05:03.751Z,0
2017-08-31T01:06:03.734Z,0
2017-08-31T01:07:03.415Z,0
2017-08-31T01:08:03.408Z,0
2017-08-31T01:09:03.386Z,0
2017-08-31T01:10:03.407Z,0
2017-08-31T01:11:03.048Z,0
2017-08-31T01:12:03.657Z,0
2017-08-31T01:13:03.646Z,0
2017-08-31T01:14:03.628Z,0
2017-08-31T01:15:02.999Z,0
2017-08-31T01:16:03.619Z,0
2017-08-31T01:17:03.604Z,0
2017-08-31T01:18:03.633Z,0
2017-08-31T01:19:03.566Z,0
2017-08-31T01:20:03.301Z,0
2017-08-31T01:21:02.910Z,0
2017-08-31T01:22:02.908Z,0
2017-08-31T01:23:03.595Z,0
2017-08-31T01:24:03.209Z,0
2017-08-31T01:25:02.855Z,0
2017-08-31T01:26:03.543Z,0
2017-08-31T01:27:03.152Z,0
2017-08-31T01:28:02.927Z,0
2017-08-31T01:29:03.122Z,0
2017-08-31T01:30:02.839Z,0
2017-08-31T01:31:02.773Z,0
2017-08-31T01:32:03.169Z,0
2017-08-31T01:33:02.755Z,0
2017-08-31T01:34:03.659Z,0
2017-08-31T01:35:03.037Z,0
2017-08-31T01:36:03.416Z,0
2017-08-31T01:37:03.320Z,0
2017-08-31T01:38:02.993Z,0
2017-08-31T01:39:02.680Z,0
2017-08-31T01:40:02.971Z,0
2017-08-31T01:41:02.649Z,0
2017-08-31T01:42:02.624Z,0
2017-08-31T01:43:03.249Z,0
2017-08-31T01:44:02.902Z,0
2017-08-31T01:45:02.578Z,0
2017-08-31T01:46:02.896Z,0
2017-08-31T01:47:02.871Z,0
2017-08-31T01:48:02.561Z,0
2017-08-31T01:49:02.843Z,0
2017-08-31T01:50:02.527Z,0
2017-08-31T01:51:02.496Z,0
2017-08-31T01:52:02.480Z,0
2017-08-31T01:53:02.857Z,0
2017-08-31T01:54:02.782Z,0
2017-08-31T01:55:03.069Z,0
2017-08-31T01:56:03.061Z,0
2017-08-31T01:57:02.739Z,0
2017-08-31T01:58:02.728Z,0
2017-08-31T01:59:02.688Z,0
2017-08-31T02:00:02.379Z,0
2017-08-31T02:01:02.689Z,0
2017-08-31T02:02:02.959Z,0
2017-08-31T02:03:02.688Z,0
2017-08-31T02:04:02.637Z,0
2017-08-31T02:05:02.306Z,0
2017-08-31T02:06:02.636Z,0
2017-08-31T02:07:02.598Z,0
2017-08-31T02:08:02.410Z,0
2017-08-31T02:09:02.670Z,0
2017-08-31T02:10:02.271Z,0
2017-08-31T02:11:02.549Z,0
2017-08-31T02:12:02.842Z,0
2017-08-31T02:13:02.592Z,0
2017-08-31T02:14:02.598Z,0
2017-08-31T02:15:02.582Z,0
2017-08-31T02:16:02.493Z,0
2017-08-31T02:17:02.450Z,0
2017-08-31T02:18:02.752Z,0
2017-08-31T02:19:01.831Z,0
2017-08-31T02:20:02.110Z,0
2017-08-31T02:21:02.403Z,0
2017-08-31T02:22:02.698Z,0
2017-08-31T02:23:02.072Z,0
2017-08-31T02:24:02.360Z,0
2017-08-31T02:25:02.428Z,0
2017-08-31T02:26:02.629Z,0
2017-08-31T02:27:02.634Z,0
2017-08-31T02:28:02.301Z,0
2017-08-31T02:29:02.277Z,0
2017-08-31T02:30:02.590Z,0
2017-08-31T02:31:02.380Z,0
2017-08-31T02:32:02.563Z,0
2017-08-31T02:33:02.553Z,0
2017-08-31T02:34:02.221Z,0
2017-08-31T02:35:02.521Z,0
2017-08-31T02:36:01.567Z,0
2017-08-31T02:37:02.480Z,0
2017-08-31T02:38:02.528Z,0
2017-08-31T02:39:02.560Z,0
2017-08-31T02:40:02.440Z,0
2017-08-31T02:41:02.547Z,0
2017-08-31T02:42:02.442Z,0
2017-08-31T02:43:02.089Z,0
2017-08-31T02:44:02.404Z,0
2017-08-31T02:45:01.746Z,0
2017-08-31T02:46:02.424Z,0
2017-08-31T02:47:02.353Z,0
2017-08-31T02:48:02.033Z,0
2017-08-31T02:49:02.331Z,0
2017-08-31T02:50:02.309Z,0
2017-08-31T02:51:02.409Z,0
2017-08-31T02:52:01.956Z,0
2017-08-31T02:53:01.970Z,0
2017-08-31T02:54:01.310Z,0
2017-08-31T02:55:02.030Z,0
2017-08-31T02:56:02.325Z,0
2017-08-31T02:57:01.581Z,0
2017-08-31T02:58:01.878Z,0
2017-08-31T02:59:01.899Z,0
2017-08-31T03:00:01.849Z,0
2017-08-31T03:01:01.831Z,0
2017-08-31T03:02:02.162Z,0
2017-08-31T03:03:02.167Z,0
2017-08-31T03:04:01.789Z,0
2017-08-31T03:05:01.780Z,0
2017-08-31T03:06:01.759Z,0
2017-08-31T03:07:01.451Z,0
2017-08-31T03:08:01.751Z,0
2017-08-31T03:09:01.725Z,0
2017-08-31T03:10:02.040Z,0
2017-08-31T03:11:01.780Z,0
2017-08-31T03:12:01.662Z,0
2017-08-31T03:13:01.040Z,0
2017-08-31T03:14:01.957Z,0
2017-08-31T03:15:01.940Z,0
2017-08-31T03:16:01.306Z,0
2017-08-31T03:17:01.290Z,0
2017-08-31T03:18:01.290Z,0
2017-08-31T03:19:01.568Z,0
2017-08-31T03:20:01.880Z,0
2017-08-31T03:21:01.539Z,0
2017-08-31T03:22:01.841Z,0
2017-08-31T03:23:01.206Z,0
2017-08-31T03:24:01.494Z,0
2017-08-31T03:25:01.479Z,0
2017-08-31T03:26:01.822Z,0
2017-08-31T03:27:01.144Z,0
2017-08-31T03:28:01.433Z,0
2017-08-31T03:29:01.740Z,0
2017-08-31T03:30:00.788Z,0
2017-08-31T03:31:01.394Z,0
2017-08-31T03:32:01.403Z,0
2017-08-31T03:33:01.368Z,0
2017-08-31T03:34:01.360Z,0
2017-08-31T03:35:01.331Z,0
2017-08-31T03:36:01.006Z,0
2017-08-31T03:37:00.997Z,0
2017-08-31T03:38:01.301Z,0
2017-08-31T03:39:01.280Z,0
2017-08-31T03:40:01.278Z,0
2017-08-31T03:41:01.602Z,0
2017-08-31T03:42:01.238Z,0
2017-08-31T03:43:01.219Z,0
2017-08-31T03:44:01.511Z,0
2017-08-31T03:45:01.510Z,0
2017-08-31T03:46:00.880Z,0
2017-08-31T03:47:01.151Z,0
2017-08-31T03:48:01.470Z,0
2017-08-31T03:49:01.127Z,0
2017-08-31T03:50:01.443Z,0
2017-08-31T03:51:00.800Z,0
2017-08-31T03:52:01.403Z,0
2017-08-31T03:53:01.069Z,0
2017-08-31T03:54:01.365Z,0
2017-08-31T03:55:01.355Z,0
2017-08-31T03:56:01.038Z,0
2017-08-31T03:57:01.329Z,0
2017-08-31T03:58:01.032Z,0
2017-08-31T03:59:00.678Z,0
2017-08-31T04:00:00.991Z,0
2017-08-31T04:01:00.648Z,0
2017-08-31T04:02:00.321Z,0
2017-08-31T04:03:00.630Z,0
2017-08-31T04:04:01.249Z,0
2017-08-31T04:05:00.904Z,0
2017-08-31T04:06:00.890Z,0
2017-08-31T04:07:01.171Z,0
2017-08-31T04:08:01.200Z,0
2017-08-31T04:09:00.849Z,0
2017-08-31T04:10:00.838Z,0
2017-08-31T04:11:01.125Z,0
2017-08-31T04:12:00.803Z,0
2017-08-31T04:13:00.803Z,0
2017-08-31T04:14:01.118Z,0
2017-08-31T04:15:00.783Z,0
2017-08-31T04:16:01.161Z,0
2017-08-31T04:17:00.422Z,0
2017-08-31T04:18:01.091Z,0
2017-08-31T04:19:01.021Z,0
2017-08-31T04:20:00.383Z,0
2017-08-31T04:21:00.350Z,0
2017-08-31T04:22:00.717Z,0
2017-08-31T04:23:00.662Z,4
2017-08-31T04:24:00.640Z,0
2017-08-31T04:25:00.912Z,0
2017-08-31T04:26:01.152Z,0
2017-08-31T04:27:00.270Z,0
2017-08-31T04:28:00.565Z,0
2017-08-31T04:29:00.613Z,0
2017-08-31T04:30:00.910Z,4
2017-08-31T04:31:00.513Z,4
2017-08-31T04:32:00.200Z,4
2017-08-31T04:33:00.810Z,4
2017-08-31T04:34:00.853Z,4
2017-08-31T04:35:00.480Z,8
2017-08-31T04:36:00.450Z,4
2017-08-31T04:37:00.110Z,8
2017-08-31T04:38:00.111Z,8
2017-08-31T04:39:00.776Z,8
2017-08-31T04:40:00.762Z,8
2017-08-31T04:41:00.450Z,12
2017-08-31T04:42:00.042Z,12
2017-08-31T04:43:00.042Z,12
2017-08-31T04:44:00.320Z,12
2017-08-31T04:45:00.302Z,12
2017-08-31T04:46:00.310Z,16
2017-08-31T04:47:00.660Z,16
2017-08-31T04:48:00.284Z,20
2017-08-31T04:48:59.941Z,24
2017-08-31T04:50:00.243Z,28
2017-08-31T04:50:59.913Z,32
2017-08-31T04:51:59.903Z,36
2017-08-31T04:53:00.202Z,36
2017-08-31T04:54:00.191Z,40
2017-08-31T04:55:00.524Z,44
2017-08-31T04:56:00.152Z,52
2017-08-31T04:57:00.128Z,52
2017-08-31T04:57:59.826Z,52
2017-08-31T04:59:00.098Z,52
2017-08-31T04:59:59.778Z,52
2017-08-31T05:01:00.072Z,52
2017-08-31T05:02:00.471Z,56
2017-08-31T05:03:00.361Z,60
2017-08-31T05:04:00.340Z,64
2017-08-31T05:05:00.002Z,68
2017-08-31T05:06:00.323Z,84
2017-08-31T05:07:00.001Z,96
2017-08-31T05:07:59.972Z,100
2017-08-31T05:08:59.969Z,96
2017-08-31T05:09:59.929Z,92
2017-08-31T05:11:00.240Z,96
2017-08-31T05:12:00.210Z,88
2017-08-31T05:13:00.200Z,104
2017-08-31T05:13:59.883Z,124
2017-08-31T05:14:59.875Z,132
2017-08-31T05:16:00.162Z,136
2017-08-31T05:17:00.162Z,156
2017-08-31T05:17:59.837Z,168
2017-08-31T05:19:00.131Z,164
2017-08-31T05:20:00.102Z,172
2017-08-31T05:21:00.112Z,196
2017-08-31T05:22:00.076Z,220
2017-08-31T05:22:59.760Z,240
2017-08-31T05:23:59.791Z,260
2017-08-31T05:25:00.038Z,276
2017-08-31T05:26:00.021Z,280
2017-08-31T05:27:00.012Z,272
2017-08-31T05:27:59.971Z,264
2017-08-31T05:28:59.976Z,236
2017-08-31T05:29:59.941Z,236
2017-08-31T05:30:59.950Z,216
2017-08-31T05:31:59.928Z,196
2017-08-31T05:32:59.922Z,196
2017-08-31T05:33:59.581Z,188
2017-08-31T05:34:59.569Z,176
2017-08-31T05:35:59.872Z,172
2017-08-31T05:36:59.861Z,172
2017-08-31T05:37:59.202Z,180
2017-08-31T05:38:59.826Z,180
2017-08-31T05:39:59.490Z,180
2017-08-31T05:40:59.570Z,160
2017-08-31T05:41:59.151Z,144
2017-08-31T05:42:59.762Z,144
2017-08-31T05:43:59.436Z,160
2017-08-31T05:44:59.491Z,156
2017-08-31T05:45:59.391Z,148
2017-08-31T05:46:59.699Z,128
2017-08-31T05:47:59.695Z,116
2017-08-31T05:48:59.034Z,112
2017-08-31T05:49:59.333Z,116
2017-08-31T05:50:59.652Z,120
2017-08-31T05:51:59.300Z,136
2017-08-31T05:52:59.590Z,156
2017-08-31T05:53:59.618Z,184
2017-08-31T05:54:59.581Z,204
2017-08-31T05:55:59.558Z,212
2017-08-31T05:56:59.554Z,212
2017-08-31T05:57:59.534Z,228
2017-08-31T05:58:59.510Z,268
2017-08-31T05:59:59.560Z,252
2017-08-31T06:00:59.175Z,288
2017-08-31T06:01:59.482Z,320
2017-08-31T06:02:59.171Z,332
2017-08-31T06:03:59.591Z,348
2017-08-31T06:04:58.816Z,364
2017-08-31T06:05:59.402Z,380
2017-08-31T06:06:59.403Z,388
2017-08-31T06:07:59.064Z,376
2017-08-31T06:08:59.119Z,400
2017-08-31T06:09:59.030Z,376
2017-08-31T06:10:59.083Z,340
2017-08-31T06:11:58.996Z,316
2017-08-31T06:12:58.990Z,276
2017-08-31T06:13:58.960Z,276
2017-08-31T06:14:59.271Z,320
2017-08-31T06:15:58.636Z,296
2017-08-31T06:16:58.950Z,252
2017-08-31T06:17:59.321Z,264
2017-08-31T06:18:58.898Z,292
2017-08-31T06:19:58.891Z,288
2017-08-31T06:20:59.190Z,256
2017-08-31T06:21:58.540Z,268
2017-08-31T06:22:59.161Z,312
2017-08-31T06:23:58.507Z,364
2017-08-31T06:24:59.210Z,384
2017-08-31T06:25:59.111Z,392
2017-08-31T06:26:59.151Z,360
2017-08-31T06:27:59.073Z,372
2017-08-31T06:28:59.071Z,416
2017-08-31T06:29:58.420Z,432
2017-08-31T06:30:59.035Z,492
2017-08-31T06:31:59.013Z,464
2017-08-31T06:32:59.060Z,508
2017-08-31T06:33:58.834Z,456
2017-08-31T06:34:58.702Z,436
2017-08-31T06:35:58.320Z,444
2017-08-31T06:36:58.973Z,492
2017-08-31T06:37:58.928Z,464
2017-08-31T06:38:58.603Z,452
2017-08-31T06:39:58.889Z,516
2017-08-31T06:40:58.921Z,572
2017-08-31T06:41:58.869Z,576
2017-08-31T06:42:58.555Z,548
2017-08-31T06:43:58.912Z,524
2017-08-31T06:44:58.501Z,532
2017-08-31T06:45:58.811Z,484
2017-08-31T06:46:58.831Z,512
2017-08-31T06:47:58.770Z,468
2017-08-31T06:48:58.439Z,412
2017-08-31T06:49:58.939Z,484
2017-08-31T06:50:58.758Z,488
2017-08-31T06:51:57.779Z,540
2017-08-31T06:52:58.739Z,500
2017-08-31T06:53:58.355Z,528
2017-08-31T06:54:58.657Z,572
2017-08-31T06:55:58.760Z,588
2017-08-31T06:56:58.321Z,556
2017-08-31T06:57:58.625Z,620
2017-08-31T06:58:57.971Z,696
2017-08-31T06:59:58.278Z,716
2017-08-31T07:00:58.567Z,736
2017-08-31T07:01:57.928Z,824
2017-08-31T07:02:58.227Z,868
2017-08-31T07:03:58.236Z,864
2017-08-31T07:04:58.498Z,852
2017-08-31T07:05:58.508Z,852
2017-08-31T07:06:58.161Z,904
2017-08-31T07:07:58.452Z,1004
2017-08-31T07:08:58.439Z,952
2017-08-31T07:09:57.798Z,908
2017-08-31T07:10:57.782Z,916
2017-08-31T07:11:58.069Z,972
2017-08-31T07:12:58.059Z,928
2017-08-31T07:13:57.735Z,896
2017-08-31T07:14:58.042Z,896
2017-08-31T07:15:58.016Z,900
2017-08-31T07:16:57.989Z,928
2017-08-31T07:17:58.319Z,980
2017-08-31T07:18:57.968Z,1008
2017-08-31T07:19:57.953Z,992
2017-08-31T07:20:57.953Z,984
2017-08-31T07:21:58.250Z,960
2017-08-31T07:22:57.601Z,956
2017-08-31T07:23:57.909Z,936
2017-08-31T07:24:58.223Z,972
2017-08-31T07:25:57.889Z,956
2017-08-31T07:26:57.853Z,1004
2017-08-31T07:27:57.829Z,1116
2017-08-31T07:28:57.809Z,1156
2017-08-31T07:29:58.110Z,1188
2017-08-31T07:30:58.108Z,1316
2017-08-31T07:31:57.779Z,1344
2017-08-31T07:32:57.760Z,1400
2017-08-31T07:33:57.750Z,1392
2017-08-31T07:34:58.040Z,1372
2017-08-31T07:35:57.730Z,1348
2017-08-31T07:36:57.717Z,1484
2017-08-31T07:37:57.679Z,1612
2017-08-31T07:38:57.664Z,1700
2017-08-31T07:39:57.662Z,1740
2017-08-31T07:40:57.663Z,1848
2017-08-31T07:41:57.627Z,1716
2017-08-31T07:42:57.629Z,1644
2017-08-31T07:43:57.627Z,1636
2017-08-31T07:44:57.890Z,1676
2017-08-31T07:45:57.548Z,1736
2017-08-31T07:46:57.866Z,1764
2017-08-31T07:47:57.549Z,1832
2017-08-31T07:48:57.819Z,1900
2017-08-31T07:49:57.491Z,2104
2017-08-31T07:50:57.788Z,2232
2017-08-31T07:51:57.460Z,2328
2017-08-31T07:52:57.773Z,2400
2017-08-31T07:53:57.749Z,2560
2017-08-31T07:54:57.420Z,3012
2017-08-31T07:55:57.720Z,3236
2017-08-31T07:56:57.690Z,3420
2017-08-31T07:57:57.679Z,3740
2017-08-31T07:58:57.679Z,3960
2017-08-31T07:59:57.641Z,3316
2017-08-31T08:00:57.651Z,2976
2017-08-31T08:01:57.643Z,2832
2017-08-31T08:02:57.612Z,2504
2017-08-31T08:03:57.602Z,2228
2017-08-31T08:04:57.619Z,1860
2017-08-31T08:05:57.599Z,1936
2017-08-31T08:06:57.557Z,2332
2017-08-31T08:07:57.529Z,2804
2017-08-31T08:08:57.610Z,2756
2017-08-31T08:09:57.506Z,2908
2017-08-31T08:10:57.620Z,3288
2017-08-31T08:11:57.494Z,3276
2017-08-31T08:12:57.586Z,3156
2017-08-31T08:13:57.461Z,2960
2017-08-31T08:14:57.109Z,2760
2017-08-31T08:15:57.116Z,2684
2017-08-31T08:16:57.092Z,2628
2017-08-31T08:17:57.397Z,2596
2017-08-31T08:18:56.795Z,2520
2017-08-31T08:19:57.038Z,2448
2017-08-31T08:20:57.011Z,2348
2017-08-31T08:21:57.361Z,2584
2017-08-31T08:22:57.011Z,2672
2017-08-31T08:23:57.366Z,2836
2017-08-31T08:24:57.057Z,2428
2017-08-31T08:25:57.370Z,1904
2017-08-31T08:26:57.289Z,1580
2017-08-31T08:27:56.961Z,1844
2017-08-31T08:28:57.272Z,2156
2017-08-31T08:29:56.899Z,2156
2017-08-31T08:30:57.201Z,1440
2017-08-31T08:31:57.225Z,1152
2017-08-31T08:32:56.539Z,1080
2017-08-31T08:33:57.244Z,1116
2017-08-31T08:34:57.150Z,1280
2017-08-31T08:35:56.478Z,1424
2017-08-31T08:36:57.085Z,1352
2017-08-31T08:37:56.768Z,1260
2017-08-31T08:38:57.056Z,1244
2017-08-31T08:39:57.050Z,1408
2017-08-31T08:40:56.761Z,1532
2017-08-31T08:41:56.795Z,1776
2017-08-31T08:42:56.702Z,1924
2017-08-31T08:43:56.679Z,1864
2017-08-31T08:44:56.982Z,1936
2017-08-31T08:45:56.318Z,1904
2017-08-31T08:46:57.041Z,1816
2017-08-31T08:47:56.670Z,1836
2017-08-31T08:48:56.601Z,2016
2017-08-31T08:49:56.892Z,2168
2017-08-31T08:50:56.255Z,2388
2017-08-31T08:51:56.607Z,2456
2017-08-31T08:52:56.838Z,2376
2017-08-31T08:53:56.584Z,2260
2017-08-31T08:54:56.828Z,2192
2017-08-31T08:55:56.908Z,2356
2017-08-31T08:56:56.479Z,2388
2017-08-31T08:57:56.458Z,2080
2017-08-31T08:58:56.151Z,1500
2017-08-31T08:59:56.129Z,1172
2017-08-31T09:00:56.729Z,1148
2017-08-31T09:01:56.397Z,1200
2017-08-31T09:02:56.719Z,1284
2017-08-31T09:03:56.376Z,1488
2017-08-31T09:04:56.739Z,1660
2017-08-31T09:05:56.645Z,1652
2017-08-31T09:06:56.323Z,1208
2017-08-31T09:07:56.357Z,1232
2017-08-31T09:08:56.326Z,1664
2017-08-31T09:09:56.286Z,2352
2017-08-31T09:10:56.269Z,2548
2017-08-31T09:11:56.567Z,3088
2017-08-31T09:12:56.569Z,3520
2017-08-31T09:13:55.918Z,3772
2017-08-31T09:14:56.560Z,4036
2017-08-31T09:15:56.199Z,4076
2017-08-31T09:16:56.481Z,4300
2017-08-31T09:17:56.472Z,4188
2017-08-31T09:18:56.159Z,3992
2017-08-31T09:19:56.138Z,3344
2017-08-31T09:20:55.810Z,2840
2017-08-31T09:21:56.419Z,3320
2017-08-31T09:22:56.410Z,3556
2017-08-31T09:23:56.388Z,3680
2017-08-31T09:24:56.062Z,3836
2017-08-31T09:25:56.043Z,3936
2017-08-31T09:26:56.329Z,4064
2017-08-31T09:27:56.002Z,4280
2017-08-31T09:28:55.993Z,4580
2017-08-31T09:29:56.299Z,4692
2017-08-31T09:30:55.988Z,4648
2017-08-31T09:31:55.961Z,4760
2017-08-31T09:32:55.948Z,4880
2017-08-31T09:33:55.608Z,4972
2017-08-31T09:34:55.919Z,5124
2017-08-31T09:35:55.576Z,5128
2017-08-31T09:36:56.219Z,5072
2017-08-31T09:37:56.192Z,5388
2017-08-31T09:38:56.158Z,5796
2017-08-31T09:39:56.158Z,5296
2017-08-31T09:40:56.143Z,5508
2017-08-31T09:41:56.122Z,4916
2017-08-31T09:42:55.537Z,5028
2017-08-31T09:43:55.780Z,5440
2017-08-31T09:44:55.759Z,5464
2017-08-31T09:45:55.759Z,6572
2017-08-31T09:46:55.428Z,7672
2017-08-31T09:47:56.033Z,9832
2017-08-31T09:48:55.821Z,10084
2017-08-31T09:49:55.688Z,10116
2017-08-31T09:50:55.987Z,8828
2017-08-31T09:51:55.666Z,8292
2017-08-31T09:52:55.658Z,6260
2017-08-31T09:53:55.629Z,6556
2017-08-31T09:54:55.301Z,8272
2017-08-31T09:55:55.629Z,7728
2017-08-31T09:56:55.907Z,12068
2017-08-31T09:57:55.882Z,6464
2017-08-31T09:58:55.569Z,5288
2017-08-31T09:59:55.862Z,4968
2017-08-31T10:00:55.848Z,4416
2017-08-31T10:01:55.629Z,4168
2017-08-31T10:02:55.821Z,3604
2017-08-31T10:03:55.909Z,3372
2017-08-31T10:04:55.484Z,2704
2017-08-31T10:05:55.779Z,2344
2017-08-31T10:06:55.771Z,2260
2017-08-31T10:07:55.447Z,2324
2017-08-31T10:08:55.128Z,2436
2017-08-31T10:09:55.781Z,2612
2017-08-31T10:10:55.460Z,3044
2017-08-31T10:11:55.480Z,2848
2017-08-31T10:12:55.181Z,2328
2017-08-31T10:13:55.083Z,1896
2017-08-31T10:14:55.460Z,1872
2017-08-31T10:15:55.343Z,2080
2017-08-31T10:16:55.320Z,2700
2017-08-31T10:17:55.621Z,3340
2017-08-31T10:18:55.300Z,3504
2017-08-31T10:19:55.658Z,3764
2017-08-31T10:20:55.580Z,3684
2017-08-31T10:21:55.262Z,3616
2017-08-31T10:22:55.288Z,3516
2017-08-31T10:23:55.230Z,3024
2017-08-31T10:24:55.210Z,3028
2017-08-31T10:25:55.286Z,3324
2017-08-31T10:26:55.539Z,3676
2017-08-31T10:27:55.222Z,3924
2017-08-31T10:28:55.137Z,4276
2017-08-31T10:29:55.538Z,4772
2017-08-31T10:30:55.112Z,5516
2017-08-31T10:31:55.130Z,6200
2017-08-31T10:32:55.401Z,6992
2017-08-31T10:33:55.390Z,7700
2017-08-31T10:34:55.395Z,7916
2017-08-31T10:35:55.375Z,8588
2017-08-31T10:36:55.360Z,9844
2017-08-31T10:37:55.331Z,13260
2017-08-31T10:38:55.327Z,14872
2017-08-31T10:39:54.988Z,16352
2017-08-31T10:40:55.360Z,16352
2017-08-31T10:41:55.290Z,14648
2017-08-31T10:42:54.950Z,13000
2017-08-31T10:43:55.280Z,12068
2017-08-31T10:44:55.290Z,11748
2017-08-31T10:45:55.250Z,10628
2017-08-31T10:46:55.224Z,8912
2017-08-31T10:47:54.916Z,7436
2017-08-31T10:48:55.232Z,6516
2017-08-31T10:49:54.553Z,6284
2017-08-31T10:50:55.210Z,6760
2017-08-31T10:51:55.161Z,6540
2017-08-31T10:52:55.144Z,6188
2017-08-31T10:53:54.800Z,6312
2017-08-31T10:54:55.111Z,5852
2017-08-31T10:55:54.799Z,5636
2017-08-31T10:56:54.480Z,5724
2017-08-31T10:57:54.768Z,5828
2017-08-31T10:58:54.760Z,6072
2017-08-31T10:59:55.062Z,6344
2017-08-31T11:00:55.052Z,6420
2017-08-31T11:01:55.020Z,6348
2017-08-31T11:02:54.699Z,6076
2017-08-31T11:03:54.995Z,5832
2017-08-31T11:04:54.972Z,5768
2017-08-31T11:05:54.762Z,5856
2017-08-31T11:06:54.660Z,5364
2017-08-31T11:07:54.939Z,4904
2017-08-31T11:08:54.610Z,4800
2017-08-31T11:09:54.911Z,4440
2017-08-31T11:10:54.266Z,3892
2017-08-31T11:11:54.893Z,3868
2017-08-31T11:12:54.892Z,4088
2017-08-31T11:13:54.603Z,4132
2017-08-31T11:14:54.850Z,4228
2017-08-31T11:15:54.841Z,3336
2017-08-31T11:16:54.518Z,2544
2017-08-31T11:17:54.809Z,2292
2017-08-31T11:18:54.812Z,2556
2017-08-31T11:19:54.927Z,2584
2017-08-31T11:20:54.449Z,2824
2017-08-31T11:21:54.761Z,3200
2017-08-31T11:22:54.736Z,3756
2017-08-31T11:23:54.715Z,4452
2017-08-31T11:24:54.720Z,4916
2017-08-31T11:25:54.380Z,5012
2017-08-31T11:26:54.684Z,5044
2017-08-31T11:27:54.634Z,5048
2017-08-31T11:28:54.342Z,4964
2017-08-31T11:29:55.033Z,4800
2017-08-31T11:30:55.108Z,4540
2017-08-31T11:31:54.176Z,4216
2017-08-31T11:32:54.209Z,4548
2017-08-31T11:33:55.242Z,5220
2017-08-31T11:34:54.610Z,6708
2017-08-31T11:35:55.121Z,7180
2017-08-31T11:36:55.144Z,7176
2017-08-31T11:37:53.908Z,6596
2017-08-31T11:38:54.199Z,6152
2017-08-31T11:39:53.600Z,5680
2017-08-31T11:40:53.861Z,4768
2017-08-31T11:41:54.492Z,4952
2017-08-31T11:42:54.456Z,5172
2017-08-31T11:43:53.847Z,5384
2017-08-31T11:44:54.152Z,5704
2017-08-31T11:45:54.140Z,5476
2017-08-31T11:46:53.797Z,4632
2017-08-31T11:47:53.849Z,4368
2017-08-31T11:48:54.474Z,4516
2017-08-31T11:49:54.373Z,4420
2017-08-31T11:50:54.402Z,3964
2017-08-31T11:51:54.030Z,4028
2017-08-31T11:52:54.313Z,4456
2017-08-31T11:53:54.061Z,4936
2017-08-31T11:54:53.991Z,5608
2017-08-31T11:55:54.292Z,6064
2017-08-31T11:56:54.281Z,5944
2017-08-31T11:57:53.960Z,6896
2017-08-31T11:58:54.253Z,9060
2017-08-31T11:59:54.290Z,8268
2017-08-31T12:00:54.241Z,7552
2017-08-31T12:01:53.642Z,7640
2017-08-31T12:02:53.880Z,7136
2017-08-31T12:03:54.181Z,7672
2017-08-31T12:04:53.873Z,7828
2017-08-31T12:05:53.853Z,6744
2017-08-31T12:06:53.531Z,5792
2017-08-31T12:07:53.823Z,4156
2017-08-31T12:08:54.137Z,2388
2017-08-31T12:09:53.800Z,1540
2017-08-31T12:10:53.522Z,1000
2017-08-31T12:11:54.088Z,788
2017-08-31T12:12:54.083Z,824
2017-08-31T12:13:54.063Z,976
2017-08-31T12:14:53.731Z,1188
2017-08-31T12:15:53.720Z,1460
2017-08-31T12:16:53.709Z,1652
2017-08-31T12:17:54.002Z,1812
2017-08-31T12:18:53.990Z,1948
2017-08-31T12:19:53.672Z,1900
2017-08-31T12:20:53.639Z,1972
2017-08-31T12:21:53.629Z,2116
2017-08-31T12:22:53.636Z,2144
2017-08-31T12:23:53.912Z,1972
2017-08-31T12:24:53.883Z,1916
2017-08-31T12:25:53.892Z,1948
2017-08-31T12:26:53.341Z,1880
2017-08-31T12:27:53.559Z,1904
2017-08-31T12:28:53.007Z,2092
2017-08-31T12:29:53.838Z,2276
2017-08-31T12:30:53.510Z,2428
2017-08-31T12:31:53.793Z,2456
2017-08-31T12:32:53.491Z,2804
2017-08-31T12:33:53.780Z,3044
2017-08-31T12:34:53.451Z,3100
2017-08-31T12:35:53.416Z,3204
2017-08-31T12:36:53.423Z,3348
2017-08-31T12:37:53.743Z,3488
2017-08-31T12:38:53.126Z,3628
2017-08-31T12:39:53.694Z,3796
2017-08-31T12:40:53.461Z,3920
2017-08-31T12:41:53.685Z,4072
2017-08-31T12:42:53.117Z,4224
2017-08-31T12:43:53.640Z,4496
2017-08-31T12:44:53.603Z,4812
2017-08-31T12:45:53.602Z,4972
2017-08-31T12:46:52.957Z,5100
2017-08-31T12:47:53.573Z,5276
2017-08-31T12:48:53.533Z,5376
2017-08-31T12:49:52.629Z,5352
2017-08-31T12:50:53.301Z,5288
2017-08-31T12:51:53.250Z,5364
2017-08-31T12:52:53.189Z,5384
2017-08-31T12:53:53.501Z,5372
2017-08-31T12:54:53.481Z,5248
2017-08-31T12:55:53.159Z,5344
2017-08-31T12:56:53.149Z,5692
2017-08-31T12:57:52.809Z,6180
2017-08-31T12:58:53.119Z,6648
2017-08-31T12:59:53.515Z,6664
2017-08-31T13:00:52.773Z,6640
2017-08-31T13:01:53.061Z,6608
2017-08-31T13:02:53.368Z,6596
2017-08-31T13:03:53.050Z,7244
2017-08-31T13:04:53.022Z,6856
2017-08-31T13:05:52.705Z,7028
2017-08-31T13:06:53.429Z,6600
2017-08-31T13:07:53.316Z,6296
2017-08-31T13:08:53.282Z,6092
2017-08-31T13:09:53.324Z,6228
2017-08-31T13:10:52.963Z,6204
2017-08-31T13:11:53.248Z,5688
2017-08-31T13:12:53.351Z,5020
2017-08-31T13:13:52.895Z,5308
2017-08-31T13:14:52.886Z,5716
2017-08-31T13:15:52.893Z,6028
2017-08-31T13:16:52.863Z,6208
2017-08-31T13:17:53.271Z,6156
2017-08-31T13:18:52.837Z,6000
2017-08-31T13:19:52.815Z,5864
2017-08-31T13:20:52.814Z,5900
2017-08-31T13:21:53.153Z,5940
2017-08-31T13:22:53.103Z,6184
2017-08-31T13:23:52.774Z,5804
2017-08-31T13:24:52.758Z,5612
2017-08-31T13:25:52.744Z,5548
2017-08-31T13:26:52.742Z,5656
2017-08-31T13:27:53.039Z,5620
2017-08-31T13:28:53.035Z,5380
2017-08-31T13:29:53.003Z,5408
2017-08-31T13:30:52.990Z,5544
2017-08-31T13:31:52.672Z,5588
2017-08-31T13:32:52.655Z,5592
2017-08-31T13:33:53.021Z,5816
2017-08-31T13:34:52.931Z,6044
2017-08-31T13:35:52.948Z,5848
2017-08-31T13:36:52.915Z,5656
2017-08-31T13:37:52.920Z,5364
2017-08-31T13:38:52.572Z,4748
2017-08-31T13:39:52.559Z,4112
2017-08-31T13:40:52.883Z,3516
2017-08-31T13:41:52.862Z,3092
2017-08-31T13:42:52.841Z,3048
2017-08-31T13:43:52.854Z,2884
2017-08-31T13:44:52.813Z,2868
2017-08-31T13:45:52.793Z,2948
2017-08-31T13:46:52.813Z,2708
2017-08-31T13:47:52.793Z,2736
2017-08-31T13:48:52.794Z,3316
2017-08-31T13:49:52.733Z,3740
2017-08-31T13:50:52.752Z,4000
2017-08-31T13:51:52.744Z,4536